sensor_id;sensor_type;location;lat;lon;timestamp;pressure;altitude;pressure_sealevel;temperature;humidity
76358;BME280;65185;21.060;105.826;2023-02-24T00:01:44;101920.94;;;19.98;100.00
76358;BME280;65185;21.060;105.826;2023-02-24T00:04:12;101923.38;;;19.99;100.00
76358;BME280;65185;21.060;105.826;2023-02-24T00:06:41;101925.31;;;19.99;100.00
76358;BME280;65185;21.060;105.826;2023-02-24T00:09:12;101939.75;;;19.99;100.00
76358;BME280;65185;21.060;105.826;2023-02-24T00:11:42;101938.94;;;19.99;100.00
76358;BME280;65185;21.060;105.826;2023-02-24T00:14:15;101948.75;;;20.00;100.00
76358;BME280;65185;21.060;105.826;2023-02-24T00:16:43;101944.91;;;20.01;100.00
76358;BME280;65185;21.060;105.826;2023-02-24T00:19:12;101958.53;;;20.01;100.00
76358;BME280;65185;21.060;105.826;2023-02-24T00:21:39;101955.81;;;20.01;100.00
76358;BME280;65185;21.060;105.826;2023-02-24T00:24:06;101961.25;;;20.01;100.00
76358;BME280;65185;21.060;105.826;2023-02-24T00:26:33;101962.88;;;20.02;100.00
76358;BME280;65185;21.060;105.826;2023-02-24T00:29:03;101961.25;;;20.01;100.00
76358;BME280;65185;21.060;105.826;2023-02-24T00:31:31;101972.16;;;20.01;100.00
76358;BME280;65185;21.060;105.826;2023-02-24T00:33:59;101981.69;;;20.03;100.00
76358;BME280;65185;21.060;105.826;2023-02-24T00:36:28;101994.50;;;20.03;100.00
76358;BME280;65185;21.060;105.826;2023-02-24T00:38:57;101998.09;;;19.98;100.00
76358;BME280;65185;21.060;105.826;2023-02-24T00:41:27;101997.28;;;19.98;100.00
76358;BME280;65185;21.060;105.826;2023-02-24T00:43:59;102001.13;;;19.97;100.00
76358;BME280;65185;21.060;105.826;2023-02-24T00:46:44;102009.28;;;19.97;100.00
76358;BME280;65185;21.060;105.826;2023-02-24T00:49:19;102013.66;;;19.98;100.00
76358;BME280;65185;21.060;105.826;2023-02-24T00:51:48;102018.88;;;19.94;100.00
76358;BME280;65185;21.060;105.826;2023-02-24T00:54:16;102018.34;;;19.92;100.00
76358;BME280;65185;21.060;105.826;2023-02-24T00:56:45;102024.88;;;19.91;100.00
76358;BME280;65185;21.060;105.826;2023-02-24T00:59:15;102034.44;;;19.93;100.00
76358;BME280;65185;21.060;105.826;2023-02-24T01:01:44;102039.06;;;19.93;100.00
76358;BME280;65185;21.060;105.826;2023-02-24T01:04:11;102032.78;;;19.92;100.00
76358;BME280;65185;21.060;105.826;2023-02-24T01:06:44;102044.50;;;19.93;100.00
76358;BME280;65185;21.060;105.826;2023-02-24T01:09:13;102041.25;;;19.91;100.00
76358;BME280;65185;21.060;105.826;2023-02-24T01:11:42;102048.91;;;19.89;100.00
76358;BME280;65185;21.060;105.826;2023-02-24T01:14:29;102055.16;;;19.89;100.00
76358;BME280;65185;21.060;105.826;2023-02-24T01:16:57;102056.50;;;19.92;100.00
76358;BME280;65185;21.060;105.826;2023-02-24T01:19:30;102070.16;;;19.92;100.00
76358;BME280;65185;21.060;105.826;2023-02-24T01:21:57;102071.25;;;19.91;100.00
76358;BME280;65185;21.060;105.826;2023-02-24T01:24:27;102074.25;;;19.89;100.00
76358;BME280;65185;21.060;105.826;2023-02-24T01:26:54;102078.59;;;19.90;100.00
76358;BME280;65185;21.060;105.826;2023-02-24T01:29:22;102083.78;;;19.92;100.00
76358;BME280;65185;21.060;105.826;2023-02-24T01:31:51;102092.78;;;19.92;100.00
76358;BME280;65185;21.060;105.826;2023-02-24T01:34:24;102092.78;;;19.92;100.00
76358;BME280;65185;21.060;105.826;2023-02-24T01:36:52;102097.69;;;19.90;100.00
76358;BME280;65185;21.060;105.826;2023-02-24T01:39:21;102099.06;;;19.93;100.00
76358;BME280;65185;21.060;105.826;2023-02-24T01:41:49;102106.94;;;19.95;100.00
76358;BME280;65185;21.060;105.826;2023-02-24T01:46:49;102109.97;;;19.93;100.00
76358;BME280;65185;21.060;105.826;2023-02-24T01:49:39;102126.59;;;19.91;100.00
76358;BME280;65185;21.060;105.826;2023-02-24T01:52:18;102122.22;;;19.90;100.00
76358;BME280;65185;21.060;105.826;2023-02-24T01:54:51;102133.13;;;19.90;100.00
76358;BME280;65185;21.060;105.826;2023-02-24T01:57:21;102123.31;;;19.89;100.00
76358;BME280;65185;21.060;105.826;2023-02-24T01:59:51;102129.31;;;19.91;100.00
76358;BME280;65185;21.060;105.826;2023-02-24T02:02:21;102135.19;;;20.09;100.00
76358;BME280;65185;21.060;105.826;2023-02-24T02:04:50;102136.31;;;20.03;100.00
76358;BME280;65185;21.060;105.826;2023-02-24T02:07:21;102156.53;;;19.97;100.00
76358;BME280;65185;21.060;105.826;2023-02-24T02:09:49;102149.22;;;19.92;100.00
76358;BME280;65185;21.060;105.826;2023-02-24T02:12:20;102153.91;;;19.86;100.00
76358;BME280;65185;21.060;105.826;2023-02-24T02:14:50;102153.38;;;19.79;100.00
76358;BME280;65185;21.060;105.826;2023-02-24T02:25:53;102172.00;;;19.72;100.00
76358;BME280;65185;21.060;105.826;2023-02-24T02:28:48;102173.25;;;19.85;100.00
76358;BME280;65185;21.060;105.826;2023-02-24T02:38:16;102181.16;;;19.86;100.00
76358;BME280;65185;21.060;105.826;2023-02-24T02:43:00;102184.44;;;19.88;100.00
76358;BME280;65185;21.060;105.826;2023-02-24T02:45:44;102182.53;;;19.89;100.00
76358;BME280;65185;21.060;105.826;2023-02-24T02:48:20;102180.34;;;19.86;100.00
76358;BME280;65185;21.060;105.826;2023-02-24T02:51:04;102189.06;;;19.88;100.00
76358;BME280;65185;21.060;105.826;2023-02-24T02:53:39;102182.22;;;19.90;100.00
76358;BME280;65185;21.060;105.826;2023-02-24T02:58:38;102180.56;;;19.95;100.00
76358;BME280;65185;21.060;105.826;2023-02-24T03:01:08;102183.00;;;19.96;100.00
76358;BME280;65185;21.060;105.826;2023-02-24T03:03:42;102180.56;;;19.95;100.00
76358;BME280;65185;21.060;105.826;2023-02-24T03:06:41;102186.53;;;19.97;100.00
76358;BME280;65185;21.060;105.826;2023-02-24T03:09:09;102178.09;;;19.98;100.00
76358;BME280;65185;21.060;105.826;2023-02-24T03:11:49;102187.31;;;20.02;100.00
76358;BME280;65185;21.060;105.826;2023-02-24T03:14:43;102183.22;;;20.05;100.00
76358;BME280;65185;21.060;105.826;2023-02-24T03:17:15;102184.84;;;20.06;100.00
76358;BME280;65185;21.060;105.826;2023-02-24T03:19:47;102189.72;;;20.09;100.00
76358;BME280;65185;21.060;105.826;2023-02-24T03:22:24;102176.63;;;20.11;100.00
76358;BME280;65185;21.060;105.826;2023-02-24T03:24:53;102185.34;;;20.13;100.00
76358;BME280;65185;21.060;105.826;2023-02-24T03:27:29;102179.59;;;20.14;100.00
76358;BME280;65185;21.060;105.826;2023-02-24T03:30:16;102179.84;;;20.18;100.00
76358;BME280;65185;21.060;105.826;2023-02-24T03:32:53;102181.19;;;20.20;100.00
76358;BME280;65185;21.060;105.826;2023-02-24T03:35:36;102179.78;;;20.23;100.00
76358;BME280;65185;21.060;105.826;2023-02-24T03:38:04;102178.41;;;20.25;100.00
76358;BME280;65185;21.060;105.826;2023-02-24T03:40:32;102172.69;;;20.27;100.00
76358;BME280;65185;21.060;105.826;2023-02-24T03:43:09;102170.19;;;20.30;100.00
76358;BME280;65185;21.060;105.826;2023-02-24T03:45:40;102171.00;;;20.31;100.00
76358;BME280;65185;21.060;105.826;2023-02-24T03:48:08;102169.94;;;20.32;100.00
76358;BME280;65185;21.060;105.826;2023-02-24T03:50:38;102167.22;;;20.32;100.00
76358;BME280;65185;21.060;105.826;2023-02-24T03:59:26;102165.56;;;20.31;100.00
76358;BME280;65185;21.060;105.826;2023-02-24T04:02:18;102165.00;;;20.34;100.00
76358;BME280;65185;21.060;105.826;2023-02-24T04:15:32;102150.75;;;20.42;100.00
76358;BME280;65185;21.060;105.826;2023-02-24T04:18:10;102143.59;;;20.46;100.00
76358;BME280;65185;21.060;105.826;2023-02-24T04:20:40;102137.59;;;20.49;100.00
76358;BME280;65185;21.060;105.826;2023-02-24T04:23:15;102136.50;;;20.50;100.00
76358;BME280;65185;21.060;105.826;2023-02-24T04:25:46;102136.72;;;20.54;100.00
76358;BME280;65185;21.060;105.826;2023-02-24T04:28:14;102131.53;;;20.52;100.00
76358;BME280;65185;21.060;105.826;2023-02-24T04:30:47;102124.44;;;20.51;100.00
76358;BME280;65185;21.060;105.826;2023-02-24T04:33:16;102128.00;;;20.52;100.00
76358;BME280;65185;21.060;105.826;2023-02-24T04:35:48;102124.72;;;20.55;100.00
76358;BME280;65185;21.060;105.826;2023-02-24T04:38:16;102115.41;;;20.56;100.00
76358;BME280;65185;21.060;105.826;2023-02-24T04:40:43;102110.75;;;20.56;100.00
76358;BME280;65185;21.060;105.826;2023-02-24T04:43:10;102105.00;;;20.58;100.00
76358;BME280;65185;21.060;105.826;2023-02-24T04:45:38;102105.81;;;20.58;100.00
76358;BME280;65185;21.060;105.826;2023-02-24T04:48:05;102108.28;;;20.60;100.00
76358;BME280;65185;21.060;105.826;2023-02-24T04:50:40;102106.81;;;20.67;100.00
76358;BME280;65185;21.060;105.826;2023-02-24T04:53:10;102107.13;;;20.66;100.00
76358;BME280;65185;21.060;105.826;2023-02-24T04:55:46;102108.50;;;20.63;100.00
76358;BME280;65185;21.060;105.826;2023-02-24T04:58:21;102109.31;;;20.64;100.00
76358;BME280;65185;21.060;105.826;2023-02-24T05:00:50;102107.41;;;20.64;100.00
76358;BME280;65185;21.060;105.826;2023-02-24T05:03:18;102105.25;;;20.61;100.00
76358;BME280;65185;21.060;105.826;2023-02-24T05:05:51;102102.53;;;20.61;100.00
76358;BME280;65185;21.060;105.826;2023-02-24T05:08:22;102104.72;;;20.59;100.00
76358;BME280;65185;21.060;105.826;2023-02-24T05:10:50;102103.91;;;20.59;100.00
76358;BME280;65185;21.060;105.826;2023-02-24T05:13:22;102095.72;;;20.59;100.00
76358;BME280;65185;21.060;105.826;2023-02-24T05:15:53;102097.09;;;20.56;100.00
76358;BME280;65185;21.060;105.826;2023-02-24T05:18:21;102096.31;;;20.56;100.00
76358;BME280;65185;21.060;105.826;2023-02-24T05:20:53;102090.03;;;20.55;100.00
76358;BME280;65185;21.060;105.826;2023-02-24T05:23:47;102096.59;;;20.54;100.00
76358;BME280;65185;21.060;105.826;2023-02-24T05:26:18;102099.31;;;20.54;100.00
76358;BME280;65185;21.060;105.826;2023-02-24T05:28:47;102088.16;;;20.51;100.00
76358;BME280;65185;21.060;105.826;2023-02-24T05:31:23;102091.19;;;20.49;100.00
76358;BME280;65185;21.060;105.826;2023-02-24T05:34:06;102081.59;;;20.52;100.00
76358;BME280;65185;21.060;105.826;2023-02-24T05:36:36;102086.56;;;20.50;100.00
76358;BME280;65185;21.060;105.826;2023-02-24T05:39:06;102079.22;;;20.45;100.00
76358;BME280;65185;21.060;105.826;2023-02-24T05:41:39;102085.78;;;20.44;100.00
76358;BME280;65185;21.060;105.826;2023-02-24T05:44:11;102084.44;;;20.42;100.00
76358;BME280;65185;21.060;105.826;2023-02-24T05:46:41;102083.91;;;20.40;100.00
76358;BME280;65185;21.060;105.826;2023-02-24T05:49:18;102081.47;;;20.38;100.00
76358;BME280;65185;21.060;105.826;2023-02-24T05:51:50;102076.09;;;20.33;100.00
76358;BME280;65185;21.060;105.826;2023-02-24T05:54:23;102077.19;;;20.32;100.00
76358;BME280;65185;21.060;105.826;2023-02-24T05:56:54;102086.72;;;20.29;100.00
76358;BME280;65185;21.060;105.826;2023-02-24T05:59:25;102085.94;;;20.24;100.00
76358;BME280;65185;21.060;105.826;2023-02-24T06:02:03;102077.53;;;20.20;100.00
76358;BME280;65185;21.060;105.826;2023-02-24T06:04:36;102075.94;;;20.14;100.00
76358;BME280;65185;21.060;105.826;2023-02-24T06:07:19;102072.72;;;20.07;100.00
76358;BME280;65185;21.060;105.826;2023-02-24T06:09:52;102066.22;;;20.03;100.00
76358;BME280;65185;21.060;105.826;2023-02-24T06:12:32;102062.69;;;20.03;100.00
76358;BME280;65185;21.060;105.826;2023-02-24T06:14:59;102066.00;;;20.00;100.00
76358;BME280;65185;21.060;105.826;2023-02-24T06:17:28;102073.41;;;19.94;100.00
76358;BME280;65185;21.060;105.826;2023-02-24T06:19:55;102079.69;;;19.95;100.00
76358;BME280;65185;21.060;105.826;2023-02-24T06:22:25;102078.72;;;19.75;100.00
76358;BME280;65185;21.060;105.826;2023-02-24T06:24:53;102069.81;;;19.65;100.00
76358;BME280;65185;21.060;105.826;2023-02-24T06:27:22;102069.31;;;19.58;100.00
76358;BME280;65185;21.060;105.826;2023-02-24T06:29:51;102076.22;;;19.45;100.00
76358;BME280;65185;21.060;105.826;2023-02-24T06:32:24;102078.97;;;19.35;100.00
76358;BME280;65185;21.060;105.826;2023-02-24T06:34:52;102075.22;;;19.26;100.00
76358;BME280;65185;21.060;105.826;2023-02-24T06:37:19;102080.44;;;19.22;100.00
76358;BME280;65185;21.060;105.826;2023-02-24T06:39:47;102068.72;;;19.22;100.00
76358;BME280;65185;21.060;105.826;2023-02-24T06:42:14;102072.53;;;19.21;100.00
76358;BME280;65185;21.060;105.826;2023-02-24T06:44:41;102067.91;;;19.21;100.00
76358;BME280;65185;21.060;105.826;2023-02-24T06:47:12;102059.44;;;19.23;100.00
76358;BME280;65185;21.060;105.826;2023-02-24T06:49:39;102060.25;;;19.23;100.00
76358;BME280;65185;21.060;105.826;2023-02-24T06:52:07;102068.72;;;19.22;100.00
76358;BME280;65185;21.060;105.826;2023-02-24T06:54:36;102061.63;;;19.21;100.00
76358;BME280;65185;21.060;105.826;2023-02-24T06:57:03;102057.28;;;19.20;100.00
76358;BME280;65185;21.060;105.826;2023-02-24T06:59:30;102059.16;;;19.24;100.00
76358;BME280;65185;21.060;105.826;2023-02-24T07:01:58;102064.06;;;19.27;100.00
76358;BME280;65185;21.060;105.826;2023-02-24T07:04:28;102056.41;;;19.29;100.00
76358;BME280;65185;21.060;105.826;2023-02-24T07:06:57;102056.94;;;19.31;100.00
76358;BME280;65185;21.060;105.826;2023-02-24T07:09:28;102059.63;;;19.36;100.00
76358;BME280;65185;21.060;105.826;2023-02-24T07:11:56;102060.22;;;19.33;100.00
76358;BME280;65185;21.060;105.826;2023-02-24T07:14:26;102059.13;;;19.29;100.00
76358;BME280;65185;21.060;105.826;2023-02-24T07:16:54;102040.59;;;19.31;100.00
76358;BME280;65185;21.060;105.826;2023-02-24T07:19:28;102046.91;;;19.27;100.00
76358;BME280;65185;21.060;105.826;2023-02-24T07:21:59;102051.75;;;19.30;100.00
76358;BME280;65185;21.060;105.826;2023-02-24T07:24:29;102053.16;;;19.27;100.00
76358;BME280;65185;21.060;105.826;2023-02-24T07:27:14;102046.31;;;19.30;100.00
76358;BME280;65185;21.060;105.826;2023-02-24T07:29:49;102047.38;;;19.34;100.00
76358;BME280;65185;21.060;105.826;2023-02-24T07:32:16;102055.03;;;19.32;100.00
76358;BME280;65185;21.060;105.826;2023-02-24T07:34:43;102059.09;;;19.34;100.00
76358;BME280;65185;21.060;105.826;2023-02-24T07:37:10;102046.81;;;19.37;100.00
76358;BME280;65185;21.060;105.826;2023-02-24T07:39:39;102054.97;;;19.42;100.00
76358;BME280;65185;21.060;105.826;2023-02-24T07:42:09;102047.88;;;19.46;100.00
76358;BME280;65185;21.060;105.826;2023-02-24T07:44:38;102047.84;;;19.51;100.00
76358;BME280;65185;21.060;105.826;2023-02-24T07:47:05;102050.03;;;19.49;100.00
76358;BME280;65185;21.060;105.826;2023-02-24T07:49:33;102052.47;;;19.56;100.00
76358;BME280;65185;21.060;105.826;2023-02-24T07:52:00;102048.09;;;19.55;100.00
76358;BME280;65185;21.060;105.826;2023-02-24T07:54:28;102048.09;;;19.55;100.00
76358;BME280;65185;21.060;105.826;2023-02-24T07:56:56;102042.66;;;19.55;100.00
76358;BME280;65185;21.060;105.826;2023-02-24T07:59:27;102047.56;;;19.52;100.00
76358;BME280;65185;21.060;105.826;2023-02-24T08:01:54;102052.41;;;19.61;100.00
76358;BME280;65185;21.060;105.826;2023-02-24T08:04:27;102042.34;;;19.61;100.00
76358;BME280;65185;21.060;105.826;2023-02-24T08:06:55;102041.84;;;19.54;100.00
76358;BME280;65185;21.060;105.826;2023-02-24T08:09:31;102054.41;;;19.50;100.00
76358;BME280;65185;21.060;105.826;2023-02-24T08:12:20;102040.19;;;19.53;100.00
76358;BME280;65185;21.060;105.826;2023-02-24T08:14:50;102054.59;;;19.59;100.00
76358;BME280;65185;21.060;105.826;2023-02-24T08:17:23;102054.03;;;19.62;100.00
76358;BME280;65185;21.060;105.826;2023-02-24T08:19:53;102054.59;;;19.59;100.00
76358;BME280;65185;21.060;105.826;2023-02-24T08:22:40;102059.78;;;19.60;100.00
76358;BME280;65185;21.060;105.826;2023-02-24T08:25:13;102050.78;;;19.60;100.00
76358;BME280;65185;21.060;105.826;2023-02-24T08:27:45;102049.47;;;19.52;100.00
76358;BME280;65185;21.060;105.826;2023-02-24T08:30:12;102053.31;;;19.46;100.00
76358;BME280;65185;21.060;105.826;2023-02-24T08:33:01;102064.50;;;19.44;100.00
76358;BME280;65185;21.060;105.826;2023-02-24T08:35:31;102051.13;;;19.48;100.00
76358;BME280;65185;21.060;105.826;2023-02-24T08:38:09;102057.13;;;19.50;100.00
76358;BME280;65185;21.060;105.826;2023-02-24T08:40:45;102060.13;;;19.48;100.00
76358;BME280;65185;21.060;105.826;2023-02-24T08:43:30;102052.50;;;19.45;100.00
76358;BME280;65185;21.060;105.826;2023-02-24T08:53:37;102069.13;;;19.44;100.00
76358;BME280;65185;21.060;105.826;2023-02-24T08:56:10;102071.84;;;19.44;100.00
76358;BME280;65185;21.060;105.826;2023-02-24T08:58:42;102071.31;;;19.47;100.00
76358;BME280;65185;21.060;105.826;2023-02-24T09:03:57;102077.81;;;19.51;100.00
76358;BME280;65185;21.060;105.826;2023-02-24T09:09:17;102085.75;;;19.47;100.00
76358;BME280;65185;21.060;105.826;2023-02-24T09:11:53;102079.47;;;19.47;100.00
76358;BME280;65185;21.060;105.826;2023-02-24T09:14:28;102083.84;;;19.48;100.00
76358;BME280;65185;21.060;105.826;2023-02-24T09:17:03;102082.75;;;19.49;100.00
76358;BME280;65185;21.060;105.826;2023-02-24T09:19:41;102087.66;;;19.47;100.00
76358;BME280;65185;21.060;105.826;2023-02-24T09:22:13;102085.16;;;19.50;100.00
76358;BME280;65185;21.060;105.826;2023-02-24T09:24:40;102083.56;;;19.49;100.00
76358;BME280;65185;21.060;105.826;2023-02-24T09:27:07;102086.84;;;19.46;100.00
76358;BME280;65185;21.060;105.826;2023-02-24T09:29:34;102095.81;;;19.47;100.00
76358;BME280;65185;21.060;105.826;2023-02-24T09:32:14;102090.38;;;19.47;100.00
76358;BME280;65185;21.060;105.826;2023-02-24T09:34:41;102096.66;;;19.47;100.00
76358;BME280;65185;21.060;105.826;2023-02-24T09:37:13;102092.00;;;19.48;100.00
76358;BME280;65185;21.060;105.826;2023-02-24T09:39:53;102090.63;;;19.50;100.00
76358;BME280;65185;21.060;105.826;2023-02-24T09:42:30;102088.19;;;19.49;100.00
76358;BME280;65185;21.060;105.826;2023-02-24T09:45:22;102089.84;;;19.50;100.00
76358;BME280;65185;21.060;105.826;2023-02-24T09:49:10;102094.69;;;19.53;100.00
76358;BME280;65185;21.060;105.826;2023-02-24T09:51:13;102097.16;;;19.55;100.00
76358;BME280;65185;21.060;105.826;2023-02-24T09:53:53;102109.41;;;19.52;100.00
76358;BME280;65185;21.060;105.826;2023-02-24T09:56:53;102106.44;;;19.48;100.00
76358;BME280;65185;21.060;105.826;2023-02-24T09:59:59;102111.63;;;19.50;100.00
76358;BME280;65185;21.060;105.826;2023-02-24T10:03:13;102114.91;;;19.47;100.00
76358;BME280;65185;21.060;105.826;2023-02-24T10:06:22;102120.63;;;19.45;100.00
76358;BME280;65185;21.060;105.826;2023-02-24T10:08:53;102124.72;;;19.43;100.00
76358;BME280;65185;21.060;105.826;2023-02-24T10:11:22;102130.69;;;19.45;100.00
76358;BME280;65185;21.060;105.826;2023-02-24T10:14:04;102131.53;;;19.45;100.00
76358;BME280;65185;21.060;105.826;2023-02-24T10:16:39;102134.78;;;19.47;100.00
76358;BME280;65185;21.060;105.826;2023-02-24T10:19:14;102133.44;;;19.45;100.00
76358;BME280;65185;21.060;105.826;2023-02-24T10:21:44;102145.13;;;19.45;100.00
76358;BME280;65185;21.060;105.826;2023-02-24T10:27:00;102145.69;;;19.47;100.00
76358;BME280;65185;21.060;105.826;2023-02-24T10:29:49;102146.50;;;19.48;100.00
76358;BME280;65185;21.060;105.826;2023-02-24T10:35:02;102159.59;;;19.46;100.00
76358;BME280;65185;21.060;105.826;2023-02-24T10:37:31;102157.94;;;19.45;100.00
76358;BME280;65185;21.060;105.826;2023-02-24T10:40:04;102167.75;;;19.46;100.00
76358;BME280;65185;21.060;105.826;2023-02-24T10:42:36;102175.38;;;19.49;100.00
76358;BME280;65185;21.060;105.826;2023-02-24T10:45:22;102169.38;;;19.47;100.00
76358;BME280;65185;21.060;105.826;2023-02-24T10:47:57;102177.56;;;19.47;100.00
76358;BME280;65185;21.060;105.826;2023-02-24T10:50:28;102178.09;;;19.44;100.00
76358;BME280;65185;21.060;105.826;2023-02-24T10:53:09;102190.66;;;19.45;100.00
76358;BME280;65185;21.060;105.826;2023-02-24T10:55:51;102186.84;;;19.46;100.00
76358;BME280;65185;21.060;105.826;2023-02-24T10:58:29;102194.19;;;19.45;100.00
76358;BME280;65185;21.060;105.826;2023-02-24T11:01:32;102193.09;;;19.46;100.00
76358;BME280;65185;21.060;105.826;2023-02-24T11:04:18;102198.28;;;19.48;100.00
76358;BME280;65185;21.060;105.826;2023-02-24T11:07:11;102204.00;;;19.46;100.00
76358;BME280;65185;21.060;105.826;2023-02-24T11:10:35;102206.72;;;19.46;100.00
76358;BME280;65185;21.060;105.826;2023-02-24T11:12:48;102213.00;;;19.47;99.52
76358;BME280;65185;21.060;105.826;2023-02-24T11:15:41;102210.53;;;19.45;99.00
76358;BME280;65185;21.060;105.826;2023-02-24T11:18:29;102222.53;;;19.44;100.00
76358;BME280;65185;21.060;105.826;2023-02-24T11:23:32;102223.34;;;19.45;98.55
76358;BME280;65185;21.060;105.826;2023-02-24T11:26:14;102220.88;;;19.43;98.87
76358;BME280;65185;21.060;105.826;2023-02-24T11:40:47;102261.50;;;19.35;99.57
76358;BME280;65185;21.060;105.826;2023-02-24T11:43:22;102256.03;;;19.35;99.70
76358;BME280;65185;21.060;105.826;2023-02-24T11:49:02;102268.03;;;19.34;98.51
76358;BME280;65185;21.060;105.826;2023-02-24T11:51:35;102273.47;;;19.34;98.33
76358;BME280;65185;21.060;105.826;2023-02-24T11:59:16;102280.56;;;19.30;98.76
76358;BME280;65185;21.060;105.826;2023-02-24T12:04:43;102293.13;;;19.31;100.00
76358;BME280;65185;21.060;105.826;2023-02-24T12:10:02;102290.09;;;19.42;98.74
76358;BME280;65185;21.060;105.826;2023-02-24T12:15:18;102305.38;;;19.38;97.83
76358;BME280;65185;21.060;105.826;2023-02-24T12:20:28;102305.91;;;19.30;98.23
76358;BME280;65185;21.060;105.826;2023-02-24T12:23:22;102313.25;;;19.30;99.48
76358;BME280;65185;21.060;105.826;2023-02-24T12:40:24;102332.59;;;19.28;100.00
76358;BME280;65185;21.060;105.826;2023-02-24T12:46:05;102344.63;;;19.27;100.00
76358;BME280;65185;21.060;105.826;2023-02-24T12:57:30;102354.13;;;19.25;100.00
76358;BME280;65185;21.060;105.826;2023-02-24T13:00:53;102366.13;;;19.29;100.00
76358;BME280;65185;21.060;105.826;2023-02-24T13:05:50;102383.00;;;19.26;100.00
76358;BME280;65185;21.060;105.826;2023-02-24T13:08:42;102389.28;;;19.26;100.00
76358;BME280;65185;21.060;105.826;2023-02-24T13:14:18;102394.16;;;19.29;100.00
76358;BME280;65185;21.060;105.826;2023-02-24T13:16:47;102400.44;;;19.30;100.00
76358;BME280;65185;21.060;105.826;2023-02-24T13:19:28;102404.25;;;19.29;100.00
76358;BME280;65185;21.060;105.826;2023-02-24T13:22:18;102408.63;;;19.25;100.00
76358;BME280;65185;21.060;105.826;2023-02-24T13:25:08;102415.69;;;19.26;100.00
76358;BME280;65185;21.060;105.826;2023-02-24T13:27:41;102410.00;;;19.22;100.00
76358;BME280;65185;21.060;105.826;2023-02-24T13:32:44;102421.69;;;19.23;100.00
76358;BME280;65185;21.060;105.826;2023-02-24T13:37:45;102435.84;;;19.25;100.00
76358;BME280;65185;21.060;105.826;2023-02-24T13:42:42;102439.66;;;19.24;100.00
76358;BME280;65185;21.060;105.826;2023-02-24T13:50:19;102450.28;;;19.20;100.00
76358;BME280;65185;21.060;105.826;2023-02-24T14:03:10;102475.63;;;19.10;100.00
76358;BME280;65185;21.060;105.826;2023-02-24T14:05:43;102482.16;;;19.09;100.00
76358;BME280;65185;21.060;105.826;2023-02-24T14:08:44;102485.41;;;19.11;100.00
76358;BME280;65185;21.060;105.826;2023-02-24T14:14:29;102490.31;;;19.09;100.00
76358;BME280;65185;21.060;105.826;2023-02-24T14:16:56;102493.88;;;19.10;100.00
76358;BME280;65185;21.060;105.826;2023-02-24T14:19:24;102495.50;;;19.11;100.00
76358;BME280;65185;21.060;105.826;2023-02-24T14:21:56;102492.22;;;19.09;100.00
76358;BME280;65185;21.060;105.826;2023-02-24T14:24:23;102495.78;;;19.09;100.00
76358;BME280;65185;21.060;105.826;2023-02-24T14:26:58;102497.66;;;19.09;100.00
76358;BME280;65185;21.060;105.826;2023-02-24T14:29:28;102505.03;;;19.14;100.00
76358;BME280;65185;21.060;105.826;2023-02-24T14:31:59;102499.84;;;19.17;100.00
76358;BME280;65185;21.060;105.826;2023-02-24T14:34:28;102498.25;;;19.16;100.00
76358;BME280;65185;21.060;105.826;2023-02-24T14:36:58;102499.06;;;19.17;100.00
76358;BME280;65185;21.060;105.826;2023-02-24T14:39:27;102500.97;;;19.16;100.00
76358;BME280;65185;21.060;105.826;2023-02-24T14:44:41;102510.22;;;19.20;100.00
76358;BME280;65185;21.060;105.826;2023-02-24T14:47:10;102506.13;;;19.18;100.00
76358;BME280;65185;21.060;105.826;2023-02-24T14:49:37;102506.69;;;19.20;100.00
76358;BME280;65185;21.060;105.826;2023-02-24T14:52:16;102512.38;;;19.18;100.00
76358;BME280;65185;21.060;105.826;2023-02-24T14:57:29;102513.75;;;19.16;100.00
76358;BME280;65185;21.060;105.826;2023-02-24T15:00:29;102518.66;;;19.14;100.00
76358;BME280;65185;21.060;105.826;2023-02-24T15:03:18;102512.63;;;19.11;100.00
76358;BME280;65185;21.060;105.826;2023-02-24T15:05:51;102516.47;;;19.10;100.00
76358;BME280;65185;21.060;105.826;2023-02-24T15:11:22;102519.19;;;19.10;100.00
76358;BME280;65185;21.060;105.826;2023-02-24T15:13:54;102520.56;;;19.13;100.00
76358;BME280;65185;21.060;105.826;2023-02-24T15:16:28;102527.38;;;19.10;100.00
76358;BME280;65185;21.060;105.826;2023-02-24T15:18:59;102530.63;;;19.13;100.00
76358;BME280;65185;21.060;105.826;2023-02-24T15:21:38;102527.91;;;19.13;100.00
76358;BME280;65185;21.060;105.826;2023-02-24T15:24:40;102530.63;;;19.13;100.00
76358;BME280;65185;21.060;105.826;2023-02-24T15:29:42;102535.53;;;19.10;100.00
76358;BME280;65185;21.060;105.826;2023-02-24T15:32:18;102531.97;;;19.05;100.00
76358;BME280;65185;21.060;105.826;2023-02-24T15:34:47;102532.25;;;19.08;100.00
76358;BME280;65185;21.060;105.826;2023-02-24T15:40:23;102550.75;;;19.01;100.00